sensor_id;sensor_type;location;lat;lon;timestamp;pressure;altitude;pressure_sealevel;temperature;humidity
10460;BME280;54412;51.206;6.888;2023-04-21T00:01:00;100697.50;;;10.69;76.01
10460;BME280;54412;51.206;6.888;2023-04-21T00:03:26;100691.16;;;10.90;75.09
10460;BME280;54412;51.206;6.888;2023-04-21T00:05:55;100696.88;;;10.81;75.03
10460;BME280;54412;51.206;6.888;2023-04-21T00:08:23;100698.34;;;10.87;74.88
10460;BME280;54412;51.206;6.888;2023-04-21T00:10:49;100676.81;;;10.79;75.41
10460;BME280;54412;51.206;6.888;2023-04-21T00:13:14;100672.91;;;10.86;75.20
10460;BME280;54412;51.206;6.888;2023-04-21T00:15:40;100674.22;;;10.94;74.10
10460;BME280;54412;51.206;6.888;2023-04-21T00:18:06;100670.50;;;10.81;75.48
10460;BME280;54412;51.206;6.888;2023-04-21T00:20:32;100668.09;;;10.94;73.96
10460;BME280;54412;51.206;6.888;2023-04-21T00:22:58;100675.84;;;10.63;75.50
10460;BME280;54412;51.206;6.888;2023-04-21T00:25:25;100657.09;;;10.86;74.69
10460;BME280;54412;51.206;6.888;2023-04-21T00:27:50;100655.78;;;10.77;75.78
10460;BME280;54412;51.206;6.888;2023-04-21T00:30:16;100653.22;;;10.76;75.86
10460;BME280;54412;51.206;6.888;2023-04-21T00:32:42;100657.38;;;10.63;75.99
10460;BME280;54412;51.206;6.888;2023-04-21T00:35:08;100659.78;;;10.67;75.79
10460;BME280;54412;51.206;6.888;2023-04-21T00:37:34;100661.19;;;10.57;75.65
10460;BME280;54412;51.206;6.888;2023-04-21T00:40:00;100645.81;;;10.65;75.48
10460;BME280;54412;51.206;6.888;2023-04-21T00:42:26;100650.50;;;10.77;75.81
10460;BME280;54412;51.206;6.888;2023-04-21T00:44:52;100653.22;;;10.76;75.85
10460;BME280;54412;51.206;6.888;2023-04-21T00:47:18;100662.19;;;10.54;76.18
10460;BME280;54412;51.206;6.888;2023-04-21T00:49:46;100645.44;;;10.56;76.91
10460;BME280;54412;51.206;6.888;2023-04-21T00:52:13;100645.59;;;10.70;77.30
10460;BME280;54412;51.206;6.888;2023-04-21T00:54:40;100646.06;;;10.78;77.00
10460;BME280;54412;51.206;6.888;2023-04-21T00:57:06;100637.06;;;10.65;77.50
10460;BME280;54412;51.206;6.888;2023-04-21T00:59:32;100637.91;;;10.65;77.12
10460;BME280;54412;51.206;6.888;2023-04-21T01:01:58;100643.66;;;10.73;76.84
10460;BME280;54412;51.206;6.888;2023-04-21T01:04:24;100631.47;;;10.53;78.32
10460;BME280;54412;51.206;6.888;2023-04-21T01:06:50;100637.78;;;10.68;77.42
10460;BME280;54412;51.206;6.888;2023-04-21T01:09:16;100626.19;;;10.53;78.14
10460;BME280;54412;51.206;6.888;2023-04-21T01:12:07;100620.13;;;10.69;77.31
10460;BME280;54412;51.206;6.888;2023-04-21T01:14:35;100615.03;;;10.66;77.36
10460;BME280;54412;51.206;6.888;2023-04-21T01:17:02;100616.91;;;10.81;76.64
10460;BME280;54412;51.206;6.888;2023-04-21T01:19:38;100616.81;;;10.82;76.71
10460;BME280;54412;51.206;6.888;2023-04-21T01:22:06;100610.97;;;10.93;75.66
10460;BME280;54412;51.206;6.888;2023-04-21T01:24:47;100604.38;;;10.67;77.20
10460;BME280;54412;51.206;6.888;2023-04-21T01:27:16;100602.09;;;10.61;78.32
10460;BME280;54412;51.206;6.888;2023-04-21T01:29:51;100598.91;;;10.72;77.59
10460;BME280;54412;51.206;6.888;2023-04-21T01:32:26;100598.81;;;10.56;77.69
10460;BME280;54412;51.206;6.888;2023-04-21T01:34:55;100603.53;;;10.84;76.75
10460;BME280;54412;51.206;6.888;2023-04-21T01:37:26;100606.13;;;10.68;77.48
10460;BME280;54412;51.206;6.888;2023-04-21T01:39:56;100606.25;;;10.65;77.63
10460;BME280;54412;51.206;6.888;2023-04-21T01:42:25;100611.00;;;10.59;78.43
10460;BME280;54412;51.206;6.888;2023-04-21T01:44:52;100608.19;;;10.62;77.77
10460;BME280;54412;51.206;6.888;2023-04-21T01:47:22;100615.34;;;10.77;77.40
10460;BME280;54412;51.206;6.888;2023-04-21T01:49:48;100612.09;;;10.72;76.62
10460;BME280;54412;51.206;6.888;2023-04-21T01:52:14;100611.25;;;10.54;78.78
10460;BME280;54412;51.206;6.888;2023-04-21T01:54:40;100612.41;;;10.48;79.08
10460;BME280;54412;51.206;6.888;2023-04-21T01:57:06;100611.69;;;10.62;77.98
10460;BME280;54412;51.206;6.888;2023-04-21T01:59:31;100615.03;;;10.66;78.05
10460;BME280;54412;51.206;6.888;2023-04-21T02:01:57;100609.44;;;10.72;77.61
10460;BME280;54412;51.206;6.888;2023-04-21T02:04:23;100616.50;;;10.71;77.83
10460;BME280;54412;51.206;6.888;2023-04-21T02:06:48;100607.44;;;10.77;77.33
10460;BME280;54412;51.206;6.888;2023-04-21T02:09:14;100617.50;;;10.86;77.18
10460;BME280;54412;51.206;6.888;2023-04-21T02:11:40;100609.28;;;10.75;78.22
10460;BME280;54412;51.206;6.888;2023-04-21T02:14:06;100613.72;;;10.91;77.63
10460;BME280;54412;51.206;6.888;2023-04-21T02:16:31;100612.00;;;10.56;78.37
10460;BME280;54412;51.206;6.888;2023-04-21T02:18:57;100616.66;;;10.51;79.10
10460;BME280;54412;51.206;6.888;2023-04-21T02:21:24;100618.06;;;10.75;78.63
10460;BME280;54412;51.206;6.888;2023-04-21T02:23:51;100614.41;;;10.78;77.12
10460;BME280;54412;51.206;6.888;2023-04-21T02:26:17;100617.38;;;10.72;77.75
10460;BME280;54412;51.206;6.888;2023-04-21T02:28:43;100608.03;;;10.82;77.11
10460;BME280;54412;51.206;6.888;2023-04-21T02:31:09;100604.19;;;10.72;78.64
10460;BME280;54412;51.206;6.888;2023-04-21T02:33:35;100606.03;;;10.70;77.94
10460;BME280;54412;51.206;6.888;2023-04-21T02:36:01;100612.63;;;10.61;77.92
10460;BME280;54412;51.206;6.888;2023-04-21T02:38:26;100608.28;;;10.60;77.86
10460;BME280;54412;51.206;6.888;2023-04-21T02:40:52;100611.47;;;10.67;78.43
10460;BME280;54412;51.206;6.888;2023-04-21T02:43:18;100605.56;;;10.62;78.51
10460;BME280;54412;51.206;6.888;2023-04-21T02:45:43;100614.00;;;10.51;78.95
10460;BME280;54412;51.206;6.888;2023-04-21T02:48:10;100611.84;;;10.76;78.34
10460;BME280;54412;51.206;6.888;2023-04-21T02:50:36;100613.41;;;10.63;78.34
10460;BME280;54412;51.206;6.888;2023-04-21T02:53:02;100603.16;;;10.74;78.14
10460;BME280;54412;51.206;6.888;2023-04-21T02:55:28;100604.84;;;10.58;78.11
10460;BME280;54412;51.206;6.888;2023-04-21T02:57:54;100609.19;;;10.76;76.70
10460;BME280;54412;51.206;6.888;2023-04-21T03:00:20;100612.09;;;10.72;77.15
10460;BME280;54412;51.206;6.888;2023-04-21T03:02:46;100605.00;;;10.38;79.16
10460;BME280;54412;51.206;6.888;2023-04-21T03:05:12;100609.09;;;10.43;79.26
10460;BME280;54412;51.206;6.888;2023-04-21T03:07:37;100607.97;;;10.66;78.11
10460;BME280;54412;51.206;6.888;2023-04-21T03:10:05;100606.34;;;10.46;78.51
10460;BME280;54412;51.206;6.888;2023-04-21T03:12:31;100610.91;;;10.60;78.08
10460;BME280;54412;51.206;6.888;2023-04-21T03:14:57;100618.13;;;10.57;78.67
10460;BME280;54412;51.206;6.888;2023-04-21T03:17:23;100616.75;;;10.67;77.43
10460;BME280;54412;51.206;6.888;2023-04-21T03:19:49;100625.16;;;10.56;78.05
10460;BME280;54412;51.206;6.888;2023-04-21T03:22:15;100625.63;;;10.47;77.79
10460;BME280;54412;51.206;6.888;2023-04-21T03:24:40;100620.69;;;10.58;76.83
10460;BME280;54412;51.206;6.888;2023-04-21T03:27:06;100625.78;;;10.44;77.45
10460;BME280;54412;51.206;6.888;2023-04-21T03:29:32;100626.50;;;10.47;78.28
10460;BME280;54412;51.206;6.888;2023-04-21T03:31:58;100629.13;;;10.30;79.52
10460;BME280;54412;51.206;6.888;2023-04-21T03:34:23;100627.88;;;10.37;78.60
10460;BME280;54412;51.206;6.888;2023-04-21T03:36:49;100630.53;;;10.37;78.50
10460;BME280;54412;51.206;6.888;2023-04-21T03:39:15;100636.63;;;10.38;78.68
10460;BME280;54412;51.206;6.888;2023-04-21T03:41:40;100637.03;;;10.47;77.66
10460;BME280;54412;51.206;6.888;2023-04-21T03:44:06;100629.25;;;10.27;77.96
10460;BME280;54412;51.206;6.888;2023-04-21T03:46:32;100629.19;;;10.29;78.67
10460;BME280;54412;51.206;6.888;2023-04-21T03:48:57;100634.72;;;10.41;78.54
10460;BME280;54412;51.206;6.888;2023-04-21T03:51:23;100634.41;;;10.30;78.89
10460;BME280;54412;51.206;6.888;2023-04-21T03:53:49;100625.38;;;10.17;79.74
10460;BME280;54412;51.206;6.888;2023-04-21T03:56:14;100627.31;;;10.31;78.80
10460;BME280;54412;51.206;6.888;2023-04-21T03:58:40;100635.81;;;10.37;78.56
10460;BME280;54412;51.206;6.888;2023-04-21T04:01:06;100628.91;;;10.16;79.14
10460;BME280;54412;51.206;6.888;2023-04-21T04:03:32;100624.91;;;10.26;79.13
10460;BME280;54412;51.206;6.888;2023-04-21T04:05:58;100622.25;;;10.45;78.31
10460;BME280;54412;51.206;6.888;2023-04-21T04:08:24;100626.09;;;10.38;78.27
10460;BME280;54412;51.206;6.888;2023-04-21T04:10:50;100617.28;;;10.20;78.04
10460;BME280;54412;51.206;6.888;2023-04-21T04:13:16;100625.44;;;10.16;78.67
10460;BME280;54412;51.206;6.888;2023-04-21T04:15:41;100621.09;;;10.15;78.44
10460;BME280;54412;51.206;6.888;2023-04-21T04:18:07;100622.81;;;10.33;78.12
10460;BME280;54412;51.206;6.888;2023-04-21T04:20:33;100625.53;;;10.14;78.66
10460;BME280;54412;51.206;6.888;2023-04-21T04:22:59;100624.75;;;10.12;78.57
10460;BME280;54412;51.206;6.888;2023-04-21T04:25:25;100630.59;;;10.36;77.82
10460;BME280;54412;51.206;6.888;2023-04-21T04:27:51;100633.28;;;10.17;78.23
10460;BME280;54412;51.206;6.888;2023-04-21T04:30:18;100630.84;;;10.13;78.22
10460;BME280;54412;51.206;6.888;2023-04-21T04:32:43;100631.31;;;10.02;77.73
10460;BME280;54412;51.206;6.888;2023-04-21T04:35:09;100632.63;;;9.94;77.57
10460;BME280;54412;51.206;6.888;2023-04-21T04:37:38;100625.66;;;9.93;77.93
10460;BME280;54412;51.206;6.888;2023-04-21T04:40:05;100632.84;;;9.89;78.30
10460;BME280;54412;51.206;6.888;2023-04-21T04:42:34;100633.06;;;10.03;77.49
10460;BME280;54412;51.206;6.888;2023-04-21T04:45:01;100632.78;;;10.09;77.71
10460;BME280;54412;51.206;6.888;2023-04-21T04:47:27;100642.81;;;10.01;77.54
10460;BME280;54412;51.206;6.888;2023-04-21T04:49:54;100639.31;;;9.82;78.37
10460;BME280;54412;51.206;6.888;2023-04-21T04:52:19;100638.00;;;10.11;78.03
10460;BME280;54412;51.206;6.888;2023-04-21T04:54:45;100640.56;;;10.12;77.59
10460;BME280;54412;51.206;6.888;2023-04-21T04:57:11;100642.72;;;10.03;77.79
10460;BME280;54412;51.206;6.888;2023-04-21T04:59:37;100633.56;;;10.11;77.68
10460;BME280;54412;51.206;6.888;2023-04-21T05:02:02;100637.88;;;9.94;77.63
10460;BME280;54412;51.206;6.888;2023-04-21T05:04:28;100646.03;;;9.89;78.01
10460;BME280;54412;51.206;6.888;2023-04-21T05:06:54;100648.50;;;9.92;78.17
10460;BME280;54412;51.206;6.888;2023-04-21T05:09:20;100640.44;;;9.95;78.39
10460;BME280;54412;51.206;6.888;2023-04-21T05:11:46;100648.94;;;10.02;78.23
10460;BME280;54412;51.206;6.888;2023-04-21T05:14:11;100648.22;;;9.98;78.59
10460;BME280;54412;51.206;6.888;2023-04-21T05:16:37;100646.34;;;10.00;79.02
10460;BME280;54412;51.206;6.888;2023-04-21T05:19:03;100642.81;;;10.01;79.12
10460;BME280;54412;51.206;6.888;2023-04-21T05:21:29;100647.44;;;9.96;79.71
10460;BME280;54412;51.206;6.888;2023-04-21T05:23:57;100652.13;;;10.08;79.65
10460;BME280;54412;51.206;6.888;2023-04-21T05:26:25;100645.38;;;10.21;79.64
10460;BME280;54412;51.206;6.888;2023-04-21T05:28:52;100651.13;;;10.29;79.58
10460;BME280;54412;51.206;6.888;2023-04-21T05:31:18;100654.00;;;10.42;79.54
10460;BME280;54412;51.206;6.888;2023-04-21T05:33:44;100655.81;;;10.41;79.44
10460;BME280;54412;51.206;6.888;2023-04-21T05:36:10;100656.97;;;10.36;80.44
10460;BME280;54412;51.206;6.888;2023-04-21T05:38:37;100650.00;;;10.52;80.41
10460;BME280;54412;51.206;6.888;2023-04-21T05:41:03;100650.31;;;10.46;80.33
10460;BME280;54412;51.206;6.888;2023-04-21T05:43:30;100647.13;;;10.57;79.69
10460;BME280;54412;51.206;6.888;2023-04-21T05:46:00;100645.38;;;10.57;79.73
10460;BME280;54412;51.206;6.888;2023-04-21T05:48:25;100649.94;;;10.71;79.42
10460;BME280;54412;51.206;6.888;2023-04-21T05:50:51;100653.53;;;10.70;78.37
10460;BME280;54412;51.206;6.888;2023-04-21T05:53:17;100649.81;;;10.74;78.97
10460;BME280;54412;51.206;6.888;2023-04-21T05:55:42;100642.97;;;10.70;78.45
10460;BME280;54412;51.206;6.888;2023-04-21T05:58:08;100642.66;;;10.76;78.99
10460;BME280;54412;51.206;6.888;2023-04-21T06:00:34;100639.31;;;10.55;78.98
10460;BME280;54412;51.206;6.888;2023-04-21T06:03:00;100641.41;;;10.66;78.72
10460;BME280;54412;51.206;6.888;2023-04-21T06:05:25;100633.09;;;10.73;78.88
10460;BME280;54412;51.206;6.888;2023-04-21T06:07:51;100635.69;;;10.92;78.53
10460;BME280;54412;51.206;6.888;2023-04-21T06:10:17;100635.66;;;11.09;79.02
10460;BME280;54412;51.206;6.888;2023-04-21T06:12:43;100645.13;;;11.45;77.97
10460;BME280;54412;51.206;6.888;2023-04-21T06:15:09;100642.38;;;11.31;76.97
10460;BME280;54412;51.206;6.888;2023-04-21T06:17:35;100645.22;;;11.44;76.80
10460;BME280;54412;51.206;6.888;2023-04-21T06:20:00;100635.53;;;11.60;76.66
10460;BME280;54412;51.206;6.888;2023-04-21T06:22:26;100644.78;;;11.69;76.36
10460;BME280;54412;51.206;6.888;2023-04-21T06:24:52;100639.09;;;11.59;76.58
10460;BME280;54412;51.206;6.888;2023-04-21T06:27:17;100645.47;;;11.72;76.33
10460;BME280;54412;51.206;6.888;2023-04-21T06:29:43;100641.47;;;11.81;76.32
10460;BME280;54412;51.206;6.888;2023-04-21T06:32:10;100638.91;;;11.79;76.02
10460;BME280;54412;51.206;6.888;2023-04-21T06:34:37;100639.41;;;11.70;76.44
10460;BME280;54412;51.206;6.888;2023-04-21T06:37:03;100642.31;;;11.66;76.17
10460;BME280;54412;51.206;6.888;2023-04-21T06:39:29;100648.97;;;11.73;76.83
10460;BME280;54412;51.206;6.888;2023-04-21T06:41:55;100645.66;;;11.69;75.92
10460;BME280;54412;51.206;6.888;2023-04-21T06:44:22;100648.13;;;11.88;75.89
10460;BME280;54412;51.206;6.888;2023-04-21T06:46:48;100648.66;;;12.10;74.84
10460;BME280;54412;51.206;6.888;2023-04-21T06:49:14;100646.78;;;12.12;74.68
10460;BME280;54412;51.206;6.888;2023-04-21T06:51:39;100648.72;;;12.24;74.81
10460;BME280;54412;51.206;6.888;2023-04-21T06:54:05;100640.81;;;12.08;74.38
10460;BME280;54412;51.206;6.888;2023-04-21T06:56:31;100639.34;;;12.18;74.43
10460;BME280;54412;51.206;6.888;2023-04-21T06:58:57;100638.72;;;12.44;74.48
10460;BME280;54412;51.206;6.888;2023-04-21T07:01:23;100638.41;;;12.19;75.01
10460;BME280;54412;51.206;6.888;2023-04-21T07:03:52;100639.91;;;11.77;74.72
10460;BME280;54412;51.206;6.888;2023-04-21T07:06:17;100643.75;;;11.71;75.79
10460;BME280;54412;51.206;6.888;2023-04-21T07:08:43;100639.69;;;11.66;75.94
10460;BME280;54412;51.206;6.888;2023-04-21T07:11:09;100645.16;;;11.61;76.57
10460;BME280;54412;51.206;6.888;2023-04-21T07:13:34;100640.00;;;11.75;76.72
10460;BME280;54412;51.206;6.888;2023-04-21T07:16:00;100636.28;;;11.95;74.67
10460;BME280;54412;51.206;6.888;2023-04-21T07:18:26;100644.09;;;11.65;74.43
10460;BME280;54412;51.206;6.888;2023-04-21T07:20:51;100643.97;;;11.51;75.82
10460;BME280;54412;51.206;6.888;2023-04-21T07:23:17;100642.41;;;11.47;75.40
10460;BME280;54412;51.206;6.888;2023-04-21T07:25:43;100634.16;;;11.53;75.31
10460;BME280;54412;51.206;6.888;2023-04-21T07:28:09;100634.09;;;11.54;76.54
10460;BME280;54412;51.206;6.888;2023-04-21T07:30:36;100637.56;;;11.55;77.24
10460;BME280;54412;51.206;6.888;2023-04-21T07:33:02;100636.69;;;11.72;76.35
10460;BME280;54412;51.206;6.888;2023-04-21T07:35:27;100632.03;;;11.59;77.33
10460;BME280;54412;51.206;6.888;2023-04-21T07:37:53;100632.28;;;11.55;76.18
10460;BME280;54412;51.206;6.888;2023-04-21T07:40:19;100640.97;;;11.57;75.13
10460;BME280;54412;51.206;6.888;2023-04-21T07:42:45;100638.72;;;11.49;74.41
10460;BME280;54412;51.206;6.888;2023-04-21T07:45:11;100645.44;;;11.56;74.63
10460;BME280;54412;51.206;6.888;2023-04-21T07:47:37;100643.97;;;11.51;75.59
10460;BME280;54412;51.206;6.888;2023-04-21T07:50:03;100644.47;;;11.75;74.93
10460;BME280;54412;51.206;6.888;2023-04-21T07:52:29;100642.56;;;11.77;74.71
10460;BME280;54412;51.206;6.888;2023-04-21T07:54:54;100647.44;;;11.84;73.81
10460;BME280;54412;51.206;6.888;2023-04-21T07:57:20;100641.50;;;12.12;72.76
10460;BME280;54412;51.206;6.888;2023-04-21T07:59:46;100634.84;;;12.05;73.78
10460;BME280;54412;51.206;6.888;2023-04-21T08:02:11;100640.13;;;12.05;73.65
10460;BME280;54412;51.206;6.888;2023-04-21T08:04:37;100645.13;;;12.09;72.29
10460;BME280;54412;51.206;6.888;2023-04-21T08:07:03;100639.19;;;12.21;72.43
10460;BME280;54412;51.206;6.888;2023-04-21T08:09:29;100648.91;;;12.21;73.25
10460;BME280;54412;51.206;6.888;2023-04-21T08:11:54;100642.31;;;12.28;72.72
10460;BME280;54412;51.206;6.888;2023-04-21T08:14:21;100648.56;;;12.11;72.70
10460;BME280;54412;51.206;6.888;2023-04-21T08:16:47;100657.06;;;12.16;73.36
10460;BME280;54412;51.206;6.888;2023-04-21T08:19:12;100654.44;;;12.32;72.29
10460;BME280;54412;51.206;6.888;2023-04-21T08:21:38;100649.66;;;12.38;72.09
10460;BME280;54412;51.206;6.888;2023-04-21T08:24:04;100644.63;;;12.34;73.16
10460;BME280;54412;51.206;6.888;2023-04-21T08:26:30;100636.09;;;12.44;74.38
10460;BME280;54412;51.206;6.888;2023-04-21T08:28:59;100639.53;;;12.60;73.17
10460;BME280;54412;51.206;6.888;2023-04-21T08:31:25;100640.38;;;12.61;72.99
10460;BME280;54412;51.206;6.888;2023-04-21T08:33:52;100635.81;;;12.79;71.75
10460;BME280;54412;51.206;6.888;2023-04-21T08:36:18;100629.47;;;12.81;72.32
10460;BME280;54412;51.206;6.888;2023-04-21T08:38:44;100635.19;;;12.59;72.41
10460;BME280;54412;51.206;6.888;2023-04-21T08:41:11;100632.22;;;12.80;72.32
10460;BME280;54412;51.206;6.888;2023-04-21T08:43:37;100629.03;;;12.89;72.84
10460;BME280;54412;51.206;6.888;2023-04-21T08:46:07;100630.53;;;12.79;71.89
10460;BME280;54412;51.206;6.888;2023-04-21T08:48:37;100624.78;;;12.86;72.93
10460;BME280;54412;51.206;6.888;2023-04-21T08:51:08;100632.28;;;12.48;74.70
10460;BME280;54412;51.206;6.888;2023-04-21T08:53:35;100629.16;;;12.42;75.14
10460;BME280;54412;51.206;6.888;2023-04-21T08:56:02;100629.16;;;12.42;74.19
10460;BME280;54412;51.206;6.888;2023-04-21T08:58:29;100627.00;;;12.48;75.00
10460;BME280;54412;51.206;6.888;2023-04-21T09:00:54;100610.22;;;12.49;75.92
10460;BME280;54412;51.206;6.888;2023-04-21T09:03:26;100614.38;;;12.53;75.75
10460;BME280;54412;51.206;6.888;2023-04-21T09:06:08;100616.06;;;12.54;75.22
10460;BME280;54412;51.206;6.888;2023-04-21T09:08:37;100620.94;;;12.62;74.89
10460;BME280;54412;51.206;6.888;2023-04-21T09:11:04;100627.91;;;12.63;75.42
10460;BME280;54412;51.206;6.888;2023-04-21T09:13:32;100634.06;;;12.63;75.38
10460;BME280;54412;51.206;6.888;2023-04-21T09:16:00;100628.59;;;12.67;75.48
10460;BME280;54412;51.206;6.888;2023-04-21T09:18:29;100627.38;;;12.72;74.73
10460;BME280;54412;51.206;6.888;2023-04-21T09:21:06;100636.44;;;12.98;73.92
10460;BME280;54412;51.206;6.888;2023-04-21T09:23:49;100621.09;;;13.18;73.37
10460;BME280;54412;51.206;6.888;2023-04-21T09:26:18;100626.66;;;13.28;73.26
10460;BME280;54412;51.206;6.888;2023-04-21T09:28:49;100629.84;;;13.05;73.78
10460;BME280;54412;51.206;6.888;2023-04-21T09:31:19;100627.97;;;13.21;74.56
10460;BME280;54412;51.206;6.888;2023-04-21T09:33:52;100634.03;;;13.23;74.05
10460;BME280;54412;51.206;6.888;2023-04-21T09:36:29;100628.75;;;13.23;73.40
10460;BME280;54412;51.206;6.888;2023-04-21T09:39:01;100632.81;;;13.28;73.98
10460;BME280;54412;51.206;6.888;2023-04-21T09:41:29;100636.63;;;13.67;71.97
10460;BME280;54412;51.206;6.888;2023-04-21T09:43:56;100625.63;;;13.58;72.73
10460;BME280;54412;51.206;6.888;2023-04-21T09:46:27;100613.38;;;13.84;72.25
10460;BME280;54412;51.206;6.888;2023-04-21T09:48:55;100611.66;;;13.97;71.64
10460;BME280;54412;51.206;6.888;2023-04-21T09:51:24;100613.13;;;14.29;71.55
10460;BME280;54412;51.206;6.888;2023-04-21T09:53:57;100604.09;;;14.18;71.84
10460;BME280;54412;51.206;6.888;2023-04-21T09:56:25;100592.53;;;14.33;71.54
10460;BME280;54412;51.206;6.888;2023-04-21T09:58:57;100593.47;;;14.58;69.43
10460;BME280;54412;51.206;6.888;2023-04-21T10:01:28;100600.19;;;14.77;69.48
10460;BME280;54412;51.206;6.888;2023-04-21T10:03:54;100593.84;;;15.17;69.05
10460;BME280;54412;51.206;6.888;2023-04-21T10:06:20;100585.81;;;15.80;67.38
10460;BME280;54412;51.206;6.888;2023-04-21T10:08:48;100585.88;;;15.91;66.20
10460;BME280;54412;51.206;6.888;2023-04-21T10:11:15;100582.97;;;15.70;67.06
10460;BME280;54412;51.206;6.888;2023-04-21T10:13:43;100585.66;;;15.57;67.42
10460;BME280;54412;51.206;6.888;2023-04-21T10:16:11;100573.94;;;15.60;67.39
10460;BME280;54412;51.206;6.888;2023-04-21T10:18:41;100582.06;;;15.95;66.35
10460;BME280;54412;51.206;6.888;2023-04-21T10:21:10;100578.59;;;15.69;66.92
10460;BME280;54412;51.206;6.888;2023-04-21T10:23:38;100572.91;;;15.50;67.68
10460;BME280;54412;51.206;6.888;2023-04-21T10:26:19;100578.97;;;15.52;67.80
10460;BME280;54412;51.206;6.888;2023-04-21T10:28:56;100580.25;;;15.34;68.25
10460;BME280;54412;51.206;6.888;2023-04-21T10:31:51;100568.75;;;15.21;68.19
10460;BME280;54412;51.206;6.888;2023-04-21T10:39:51;100560.69;;;15.10;70.56
10460;BME280;54412;51.206;6.888;2023-04-21T10:42:33;100549.00;;;15.25;71.16
10460;BME280;54412;51.206;6.888;2023-04-21T10:45:00;100548.56;;;15.56;67.37
10460;BME280;54412;51.206;6.888;2023-04-21T10:47:37;100550.13;;;15.58;68.59
10460;BME280;54412;51.206;6.888;2023-04-21T10:50:23;100539.28;;;15.36;70.14
10460;BME280;54412;51.206;6.888;2023-04-21T10:53:00;100527.28;;;15.56;71.23
10460;BME280;54412;51.206;6.888;2023-04-21T10:55:32;100521.13;;;15.55;69.88
10460;BME280;54412;51.206;6.888;2023-04-21T10:58:02;100514.47;;;15.74;69.41
10460;BME280;54412;51.206;6.888;2023-04-21T11:00:29;100517.69;;;15.66;68.60
10460;BME280;54412;51.206;6.888;2023-04-21T11:03:04;100513.47;;;15.51;67.34
10460;BME280;54412;51.206;6.888;2023-04-21T11:05:36;100509.19;;;15.61;65.50
10460;BME280;54412;51.206;6.888;2023-04-21T11:08:13;100508.97;;;15.64;66.13
10460;BME280;54412;51.206;6.888;2023-04-21T11:10:54;100513.59;;;16.44;60.54
10460;BME280;54412;51.206;6.888;2023-04-21T11:13:25;100505.78;;;16.30;58.97
10460;BME280;54412;51.206;6.888;2023-04-21T11:16:07;100517.53;;;16.04;59.01
10460;BME280;54412;51.206;6.888;2023-04-21T11:21:13;100496.09;;;16.29;59.96
10460;BME280;54412;51.206;6.888;2023-04-21T11:23:56;100502.16;;;16.31;58.12
10460;BME280;54412;51.206;6.888;2023-04-21T11:26:36;100491.00;;;16.49;58.73
10460;BME280;54412;51.206;6.888;2023-04-21T11:29:05;100496.38;;;16.83;57.75
10460;BME280;54412;51.206;6.888;2023-04-21T11:31:31;100481.13;;;16.96;59.58
10460;BME280;54412;51.206;6.888;2023-04-21T11:33:59;100475.56;;;16.88;58.31
10460;BME280;54412;51.206;6.888;2023-04-21T11:36:25;100471.81;;;17.12;59.01
10460;BME280;54412;51.206;6.888;2023-04-21T11:38:51;100465.47;;;17.46;58.55
10460;BME280;54412;51.206;6.888;2023-04-21T11:41:22;100461.38;;;17.31;57.62
10460;BME280;54412;51.206;6.888;2023-04-21T11:43:49;100455.50;;;17.70;56.91
10460;BME280;54412;51.206;6.888;2023-04-21T11:46:24;100449.63;;;17.45;56.94
10460;BME280;54412;51.206;6.888;2023-04-21T11:49:16;100454.44;;;17.40;57.34
10460;BME280;54412;51.206;6.888;2023-04-21T11:51:43;100458.13;;;16.95;57.42
10460;BME280;54412;51.206;6.888;2023-04-21T11:54:13;100463.19;;;16.76;57.23
10460;BME280;54412;51.206;6.888;2023-04-21T11:56:46;100462.09;;;16.56;56.76
10460;BME280;54412;51.206;6.888;2023-04-21T11:59:16;100453.75;;;16.49;57.65
10460;BME280;54412;51.206;6.888;2023-04-21T12:01:46;100453.38;;;16.54;57.37
10460;BME280;54412;51.206;6.888;2023-04-21T12:04:21;100439.44;;;16.50;57.02
10460;BME280;54412;51.206;6.888;2023-04-21T12:07:01;100436.81;;;16.61;57.82
10460;BME280;54412;51.206;6.888;2023-04-21T12:09:28;100422.28;;;16.99;56.65
10460;BME280;54412;51.206;6.888;2023-04-21T12:11:56;100423.34;;;17.18;56.45
10460;BME280;54412;51.206;6.888;2023-04-21T12:14:24;100415.19;;;17.42;55.13
10460;BME280;54412;51.206;6.888;2023-04-21T12:16:56;100399.31;;;17.83;54.72
10460;BME280;54412;51.206;6.888;2023-04-21T12:19:40;100400.47;;;18.42;55.81
10460;BME280;54412;51.206;6.888;2023-04-21T12:22:11;100414.53;;;18.44;52.08
10460;BME280;54412;51.206;6.888;2023-04-21T12:24:38;100416.22;;;18.04;52.72
10460;BME280;54412;51.206;6.888;2023-04-21T12:27:05;100413.09;;;18.20;51.39
10460;BME280;54412;51.206;6.888;2023-04-21T12:29:31;100405.28;;;18.69;51.58
10460;BME280;54412;51.206;6.888;2023-04-21T12:32:00;100404.63;;;18.15;52.20
10460;BME280;54412;51.206;6.888;2023-04-21T12:34:26;100394.66;;;18.58;51.77
10460;BME280;54412;51.206;6.888;2023-04-21T12:36:51;100391.19;;;18.67;51.29
10460;BME280;54412;51.206;6.888;2023-04-21T12:39:17;100393.31;;;18.43;52.42
10460;BME280;54412;51.206;6.888;2023-04-21T12:41:44;100383.63;;;17.69;51.74
10460;BME280;54412;51.206;6.888;2023-04-21T12:44:12;100382.38;;;17.73;52.88
10460;BME280;54412;51.206;6.888;2023-04-21T12:46:38;100385.44;;;17.68;54.05
10460;BME280;54412;51.206;6.888;2023-04-21T12:49:05;100381.22;;;17.12;54.56
10460;BME280;54412;51.206;6.888;2023-04-21T12:51:32;100391.63;;;17.04;55.01
10460;BME280;54412;51.206;6.888;2023-04-21T12:53:59;100392.75;;;16.91;54.43
10460;BME280;54412;51.206;6.888;2023-04-21T12:56:25;100402.41;;;17.14;53.91
10460;BME280;54412;51.206;6.888;2023-04-21T12:58:51;100402.16;;;16.95;54.05
10460;BME280;54412;51.206;6.888;2023-04-21T13:01:17;100393.59;;;17.56;54.26